sensor_id;sensor_type;location;lat;lon;timestamp;pressure;altitude;pressure_sealevel;temperature;humidity
5138;BME280;53959;53.626;11.410;2023-03-14T00:02:08;98343.59;;;10.09;74.10
5138;BME280;53959;53.626;11.410;2023-03-14T00:04:33;98344.72;;;10.05;74.51
5138;BME280;53959;53.626;11.410;2023-03-14T00:06:58;98337.59;;;10.05;74.45
5138;BME280;53959;53.626;11.410;2023-03-14T00:09:24;98331.16;;;10.09;74.29
5138;BME280;53959;53.626;11.410;2023-03-14T00:11:52;98323.69;;;10.02;74.60
5138;BME280;53959;53.626;11.410;2023-03-14T00:14:18;98319.13;;;10.04;74.45
5138;BME280;53959;53.626;11.410;2023-03-14T00:16:45;98318.56;;;10.13;74.44
5138;BME280;53959;53.626;11.410;2023-03-14T00:19:11;98337.88;;;10.15;74.25
5138;BME280;53959;53.626;11.410;2023-03-14T00:21:36;98350.97;;;10.18;74.38
5138;BME280;53959;53.626;11.410;2023-03-14T00:24:02;98362.41;;;10.18;74.49
5138;BME280;53959;53.626;11.410;2023-03-14T00:26:27;98368.41;;;10.22;74.37
5138;BME280;53959;53.626;11.410;2023-03-14T00:28:53;98368.13;;;10.27;74.16
5138;BME280;53959;53.626;11.410;2023-03-14T00:31:18;98368.06;;;10.28;74.28
5138;BME280;53959;53.626;11.410;2023-03-14T00:33:44;98356.75;;;10.25;74.50
5138;BME280;53959;53.626;11.410;2023-03-14T00:36:12;98349.81;;;10.22;74.66
5138;BME280;53959;53.626;11.410;2023-03-14T00:38:39;98346.06;;;10.26;74.34
5138;BME280;53959;53.626;11.410;2023-03-14T00:41:07;98361.72;;;10.31;74.32
5138;BME280;53959;53.626;11.410;2023-03-14T00:43:32;98361.53;;;10.34;74.33
5138;BME280;53959;53.626;11.410;2023-03-14T00:45:58;98361.03;;;10.41;73.94
5138;BME280;53959;53.626;11.410;2023-03-14T00:48:26;98348.72;;;10.40;74.50
5138;BME280;53959;53.626;11.410;2023-03-14T00:50:51;98345.13;;;10.41;74.73
5138;BME280;53959;53.626;11.410;2023-03-14T00:53:17;98343.34;;;10.42;74.70
5138;BME280;53959;53.626;11.410;2023-03-14T00:55:44;98333.78;;;10.39;74.72
5138;BME280;53959;53.626;11.410;2023-03-14T00:58:11;98328.47;;;10.39;75.01
5138;BME280;53959;53.626;11.410;2023-03-14T01:00:38;98309.34;;;10.34;75.06
5138;BME280;53959;53.626;11.410;2023-03-14T01:03:04;98312.44;;;10.41;74.94
5138;BME280;53959;53.626;11.410;2023-03-14T01:05:30;98301.28;;;10.36;75.33
5138;BME280;53959;53.626;11.410;2023-03-14T01:07:55;98295.38;;;10.45;74.94
5138;BME280;53959;53.626;11.410;2023-03-14T01:10:21;98313.09;;;10.44;74.92
5138;BME280;53959;53.626;11.410;2023-03-14T01:12:47;98308.56;;;10.47;74.43
5138;BME280;53959;53.626;11.410;2023-03-14T01:15:12;98314.34;;;10.53;74.22
5138;BME280;53959;53.626;11.410;2023-03-14T01:17:37;98319.06;;;10.62;73.96
5138;BME280;53959;53.626;11.410;2023-03-14T01:20:05;98322.06;;;10.70;73.36
5138;BME280;53959;53.626;11.410;2023-03-14T01:22:31;98330.72;;;10.60;74.08
5138;BME280;53959;53.626;11.410;2023-03-14T01:24:56;98338.50;;;10.63;74.07
5138;BME280;53959;53.626;11.410;2023-03-14T01:27:21;98346.19;;;10.53;74.92
5138;BME280;53959;53.626;11.410;2023-03-14T01:29:47;98358.78;;;10.50;75.65
5138;BME280;53959;53.626;11.410;2023-03-14T01:32:13;98353.31;;;10.38;76.32
5138;BME280;53959;53.626;11.410;2023-03-14T01:34:38;98347.88;;;10.40;76.40
5138;BME280;53959;53.626;11.410;2023-03-14T01:37:04;98341.19;;;10.34;76.49
5138;BME280;53959;53.626;11.410;2023-03-14T01:39:30;98348.81;;;10.25;77.07
5138;BME280;53959;53.626;11.410;2023-03-14T01:41:56;98341.72;;;10.25;76.61
5138;BME280;53959;53.626;11.410;2023-03-14T01:44:21;98354.09;;;10.25;76.58
5138;BME280;53959;53.626;11.410;2023-03-14T01:46:46;98349.09;;;10.20;76.80
5138;BME280;53959;53.626;11.410;2023-03-14T01:49:29;98350.88;;;10.19;76.85
5138;BME280;53959;53.626;11.410;2023-03-14T01:52:05;98354.56;;;10.17;76.76
5138;BME280;53959;53.626;11.410;2023-03-14T01:54:45;98350.78;;;10.21;77.24
5138;BME280;53959;53.626;11.410;2023-03-14T01:57:30;98322.44;;;10.21;77.44
5138;BME280;53959;53.626;11.410;2023-03-14T02:00:00;98312.03;;;10.18;77.28
5138;BME280;53959;53.626;11.410;2023-03-14T02:02:41;98303.22;;;10.18;76.94
5138;BME280;53959;53.626;11.410;2023-03-14T02:05:09;98300.50;;;10.19;76.97
5138;BME280;53959;53.626;11.410;2023-03-14T02:07:45;98310.63;;;10.13;77.41
5138;BME280;53959;53.626;11.410;2023-03-14T02:10:22;98304.91;;;10.19;76.86
5138;BME280;53959;53.626;11.410;2023-03-14T02:12:49;98298.41;;;10.25;76.35
5138;BME280;53959;53.626;11.410;2023-03-14T02:15:36;98299.72;;;10.17;76.37
5138;BME280;53959;53.626;11.410;2023-03-14T02:18:09;98283.63;;;10.20;76.12
5138;BME280;53959;53.626;11.410;2023-03-14T02:21:16;98270.88;;;10.27;75.89
5138;BME280;53959;53.626;11.410;2023-03-14T02:29:01;98277.53;;;10.18;76.20
5138;BME280;53959;53.626;11.410;2023-03-14T02:31:26;98278.06;;;10.25;75.74
5138;BME280;53959;53.626;11.410;2023-03-14T02:33:52;98266.75;;;10.21;75.78
5138;BME280;53959;53.626;11.410;2023-03-14T02:36:18;98240.34;;;10.20;76.00
5138;BME280;53959;53.626;11.410;2023-03-14T02:41:14;98232.19;;;10.23;75.49
5138;BME280;53959;53.626;11.410;2023-03-14T02:43:45;98219.84;;;10.22;75.52
5138;BME280;53959;53.626;11.410;2023-03-14T02:46:14;98224.41;;;10.20;75.39
5138;BME280;53959;53.626;11.410;2023-03-14T02:48:45;98222.91;;;10.16;75.83
5138;BME280;53959;53.626;11.410;2023-03-14T02:51:13;98228.59;;;10.10;75.70
5138;BME280;53959;53.626;11.410;2023-03-14T02:53:39;98236.38;;;10.13;75.48
5138;BME280;53959;53.626;11.410;2023-03-14T02:56:09;98240.81;;;10.12;75.46
5138;BME280;53959;53.626;11.410;2023-03-14T02:58:36;98253.13;;;10.13;75.39
5138;BME280;53959;53.626;11.410;2023-03-14T03:01:15;98248.47;;;10.17;75.21
5138;BME280;53959;53.626;11.410;2023-03-14T03:03:40;98252.28;;;10.13;75.52
5138;BME280;53959;53.626;11.410;2023-03-14T03:06:06;98260.22;;;10.13;75.23
5138;BME280;53959;53.626;11.410;2023-03-14T03:08:32;98264.22;;;10.06;75.20
5138;BME280;53959;53.626;11.410;2023-03-14T03:10:59;98267.41;;;10.11;75.19
5138;BME280;53959;53.626;11.410;2023-03-14T03:13:26;98269.63;;;10.04;75.75
5138;BME280;53959;53.626;11.410;2023-03-14T03:15:53;98271.97;;;9.94;76.65
5138;BME280;53959;53.626;11.410;2023-03-14T03:18:19;98273.97;;;10.05;75.98
5138;BME280;53959;53.626;11.410;2023-03-14T03:20:44;98262.78;;;10.00;76.15
5138;BME280;53959;53.626;11.410;2023-03-14T03:23:11;98261.06;;;9.99;76.20
5138;BME280;53959;53.626;11.410;2023-03-14T03:25:37;98267.63;;;9.93;76.32
5138;BME280;53959;53.626;11.410;2023-03-14T03:28:03;98262.50;;;9.90;76.06
5138;BME280;53959;53.626;11.410;2023-03-14T03:30:43;98243.84;;;9.92;75.26
5138;BME280;53959;53.626;11.410;2023-03-14T03:33:09;98237.59;;;9.93;75.75
5138;BME280;53959;53.626;11.410;2023-03-14T03:35:41;98219.41;;;9.87;75.59
5138;BME280;53959;53.626;11.410;2023-03-14T03:38:06;98218.56;;;9.86;75.17
5138;BME280;53959;53.626;11.410;2023-03-14T03:40:31;98218.94;;;9.80;75.47
5138;BME280;53959;53.626;11.410;2023-03-14T03:42:57;98220.75;;;9.80;75.69
5138;BME280;53959;53.626;11.410;2023-03-14T03:45:22;98215.34;;;9.81;75.90
5138;BME280;53959;53.626;11.410;2023-03-14T03:47:53;98213.63;;;9.80;75.97
5138;BME280;53959;53.626;11.410;2023-03-14T03:50:18;98199.63;;;9.78;75.45
5138;BME280;53959;53.626;11.410;2023-03-14T03:52:43;98195.66;;;9.71;75.53
5138;BME280;53959;53.626;11.410;2023-03-14T03:55:09;98191.38;;;9.68;75.82
5138;BME280;53959;53.626;11.410;2023-03-14T03:57:34;98180.22;;;9.78;75.32
5138;BME280;53959;53.626;11.410;2023-03-14T04:00:00;98176.91;;;9.74;75.24
5138;BME280;53959;53.626;11.410;2023-03-14T04:02:26;98172.66;;;9.71;75.62
5138;BME280;53959;53.626;11.410;2023-03-14T04:04:52;98165.44;;;9.73;75.39
5138;BME280;53959;53.626;11.410;2023-03-14T04:07:17;98165.38;;;9.75;75.13
5138;BME280;53959;53.626;11.410;2023-03-14T04:09:43;98166.78;;;9.81;75.13
5138;BME280;53959;53.626;11.410;2023-03-14T04:12:24;98145.56;;;9.81;74.98
5138;BME280;53959;53.626;11.410;2023-03-14T04:15:11;98156.09;;;9.82;74.92
5138;BME280;53959;53.626;11.410;2023-03-14T04:17:40;98148.81;;;9.86;75.03
5138;BME280;53959;53.626;11.410;2023-03-14T04:20:07;98151.34;;;9.87;74.53
5138;BME280;53959;53.626;11.410;2023-03-14T04:22:36;98159.41;;;9.86;74.89
5138;BME280;53959;53.626;11.410;2023-03-14T04:25:02;98155.78;;;9.87;74.53
5138;BME280;53959;53.626;11.410;2023-03-14T04:27:30;98158.44;;;9.87;74.78
5138;BME280;53959;53.626;11.410;2023-03-14T04:29:57;98147.91;;;9.85;74.63
5138;BME280;53959;53.626;11.410;2023-03-14T04:32:41;98153.22;;;9.85;74.93
5138;BME280;53959;53.626;11.410;2023-03-14T04:35:07;98134.47;;;9.88;74.63
5138;BME280;53959;53.626;11.410;2023-03-14T04:37:32;98135.31;;;9.89;75.00
5138;BME280;53959;53.626;11.410;2023-03-14T04:39:57;98142.53;;;9.87;74.71
5138;BME280;53959;53.626;11.410;2023-03-14T04:42:25;98128.81;;;9.80;75.15
5138;BME280;53959;53.626;11.410;2023-03-14T04:44:51;98123.88;;;9.74;75.36
5138;BME280;53959;53.626;11.410;2023-03-14T04:47:19;98117.84;;;9.72;75.68
5138;BME280;53959;53.626;11.410;2023-03-14T04:49:46;98118.81;;;9.71;75.46
5138;BME280;53959;53.626;11.410;2023-03-14T04:52:13;98119.00;;;9.68;75.33
5138;BME280;53959;53.626;11.410;2023-03-14T04:54:40;98122.84;;;9.62;75.43
5138;BME280;53959;53.626;11.410;2023-03-14T04:57:05;98128.16;;;9.62;75.64
5138;BME280;53959;53.626;11.410;2023-03-14T04:59:33;98128.94;;;9.64;75.61
5138;BME280;53959;53.626;11.410;2023-03-14T05:02:08;98113.88;;;9.65;75.33
5138;BME280;53959;53.626;11.410;2023-03-14T05:04:52;98119.34;;;9.62;75.21
5138;BME280;53959;53.626;11.410;2023-03-14T05:07:34;98111.03;;;9.54;75.63
5138;BME280;53959;53.626;11.410;2023-03-14T05:10:22;98107.72;;;9.50;75.62
5138;BME280;53959;53.626;11.410;2023-03-14T05:13:09;98103.38;;;9.49;76.01
5138;BME280;53959;53.626;11.410;2023-03-14T05:15:53;98103.47;;;9.47;75.87
5138;BME280;53959;53.626;11.410;2023-03-14T05:18:46;98099.59;;;9.53;75.82
5138;BME280;53959;53.626;11.410;2023-03-14T05:21:31;98105.56;;;9.57;75.61
5138;BME280;53959;53.626;11.410;2023-03-14T05:24:22;98102.81;;;9.58;76.07
5138;BME280;53959;53.626;11.410;2023-03-14T05:27:08;98108.03;;;9.60;75.68
5138;BME280;53959;53.626;11.410;2023-03-14T05:29:33;98106.88;;;9.64;75.91
5138;BME280;53959;53.626;11.410;2023-03-14T05:32:22;98099.47;;;9.69;75.68
5138;BME280;53959;53.626;11.410;2023-03-14T05:35:13;98091.16;;;9.75;75.51
5138;BME280;53959;53.626;11.410;2023-03-14T05:37:51;98095.69;;;9.73;75.19
5138;BME280;53959;53.626;11.410;2023-03-14T05:40:44;98091.03;;;9.77;75.40
5138;BME280;53959;53.626;11.410;2023-03-14T05:43:28;98092.09;;;9.74;75.67
5138;BME280;53959;53.626;11.410;2023-03-14T05:46:16;98089.44;;;9.74;75.78
5138;BME280;53959;53.626;11.410;2023-03-14T05:49:10;98073.53;;;9.74;75.59
5138;BME280;53959;53.626;11.410;2023-03-14T05:52:05;98086.16;;;9.70;75.39
5138;BME280;53959;53.626;11.410;2023-03-14T05:54:47;98085.28;;;9.70;75.74
5138;BME280;53959;53.626;11.410;2023-03-14T05:57:33;98087.94;;;9.70;75.61
5138;BME280;53959;53.626;11.410;2023-03-14T06:00:17;98082.84;;;9.67;75.96
5138;BME280;53959;53.626;11.410;2023-03-14T06:02:52;98077.13;;;9.73;75.76
5138;BME280;53959;53.626;11.410;2023-03-14T06:05:23;98084.06;;;9.76;76.01
5138;BME280;53959;53.626;11.410;2023-03-14T06:07:53;98079.44;;;9.65;77.06
5138;BME280;53959;53.626;11.410;2023-03-14T06:10:19;98078.28;;;9.55;77.56
5138;BME280;53959;53.626;11.410;2023-03-14T06:12:45;98087.31;;;9.52;77.29
5138;BME280;53959;53.626;11.410;2023-03-14T06:15:10;98079.91;;;9.57;77.02
5138;BME280;53959;53.626;11.410;2023-03-14T06:17:36;98078.22;;;9.56;76.99
5138;BME280;53959;53.626;11.410;2023-03-14T06:20:08;98089.84;;;9.54;77.35
5138;BME280;53959;53.626;11.410;2023-03-14T06:22:33;98076.13;;;9.47;78.05
5138;BME280;53959;53.626;11.410;2023-03-14T06:24:59;98081.34;;;9.48;78.10
5138;BME280;53959;53.626;11.410;2023-03-14T06:27:25;98084.72;;;9.51;78.13
5138;BME280;53959;53.626;11.410;2023-03-14T06:29:53;98083.41;;;9.43;78.40
5138;BME280;53959;53.626;11.410;2023-03-14T06:32:19;98087.19;;;9.39;78.79
5138;BME280;53959;53.626;11.410;2023-03-14T06:34:47;98084.94;;;9.33;78.79
5138;BME280;53959;53.626;11.410;2023-03-14T06:37:12;98092.69;;;9.36;78.67
5138;BME280;53959;53.626;11.410;2023-03-14T06:39:38;98093.75;;;9.34;79.05
5138;BME280;53959;53.626;11.410;2023-03-14T06:42:10;98096.28;;;9.35;79.07
5138;BME280;53959;53.626;11.410;2023-03-14T06:44:37;98095.44;;;9.35;79.27
5138;BME280;53959;53.626;11.410;2023-03-14T06:47:03;98097.78;;;9.39;78.81
5138;BME280;53959;53.626;11.410;2023-03-14T06:49:28;98094.84;;;9.44;78.78
5138;BME280;53959;53.626;11.410;2023-03-14T06:51:56;98089.28;;;9.48;78.10
5138;BME280;53959;53.626;11.410;2023-03-14T06:54:22;98097.31;;;9.61;78.16
5138;BME280;53959;53.626;11.410;2023-03-14T06:56:47;98107.66;;;9.52;77.88
5138;BME280;53959;53.626;11.410;2023-03-14T06:59:13;98116.53;;;9.51;78.07
5138;BME280;53959;53.626;11.410;2023-03-14T07:01:39;98114.00;;;9.49;77.86
5138;BME280;53959;53.626;11.410;2023-03-14T07:04:09;98119.34;;;9.47;77.58
5138;BME280;53959;53.626;11.410;2023-03-14T07:06:36;98117.84;;;9.58;77.48
5138;BME280;53959;53.626;11.410;2023-03-14T07:09:03;98117.28;;;9.67;76.88
5138;BME280;53959;53.626;11.410;2023-03-14T07:11:29;98126.75;;;9.71;76.50
5138;BME280;53959;53.626;11.410;2023-03-14T07:13:54;98130.16;;;9.73;76.13
5138;BME280;53959;53.626;11.410;2023-03-14T07:16:20;98125.03;;;9.70;75.75
5138;BME280;53959;53.626;11.410;2023-03-14T07:18:45;98137.34;;;9.71;75.67
5138;BME280;53959;53.626;11.410;2023-03-14T07:21:11;98140.00;;;9.71;75.07
5138;BME280;53959;53.626;11.410;2023-03-14T07:23:38;98143.41;;;9.73;74.65
5138;BME280;53959;53.626;11.410;2023-03-14T07:26:04;98146.34;;;9.83;74.34
5138;BME280;53959;53.626;11.410;2023-03-14T07:28:31;98155.50;;;9.77;74.30
5138;BME280;53959;53.626;11.410;2023-03-14T07:31:02;98155.50;;;9.77;73.96
5138;BME280;53959;53.626;11.410;2023-03-14T07:33:30;98152.41;;;9.70;73.75
5138;BME280;53959;53.626;11.410;2023-03-14T07:35:56;98160.38;;;9.70;73.39
5138;BME280;53959;53.626;11.410;2023-03-14T07:38:22;98153.34;;;9.69;74.20
5138;BME280;53959;53.626;11.410;2023-03-14T07:41:06;98159.28;;;9.73;74.19
5138;BME280;53959;53.626;11.410;2023-03-14T07:43:34;98166.28;;;9.74;73.94
5138;BME280;53959;53.626;11.410;2023-03-14T07:46:00;98145.38;;;9.84;73.54
5138;BME280;53959;53.626;11.410;2023-03-14T07:48:26;98151.53;;;9.84;73.28
5138;BME280;53959;53.626;11.410;2023-03-14T07:50:53;98162.72;;;9.75;73.32
5138;BME280;53959;53.626;11.410;2023-03-14T07:53:19;98158.16;;;9.77;73.24
5138;BME280;53959;53.626;11.410;2023-03-14T07:55:45;98152.38;;;9.85;72.64
5138;BME280;53959;53.626;11.410;2023-03-14T07:58:11;98157.50;;;9.88;72.66
5138;BME280;53959;53.626;11.410;2023-03-14T08:00:36;98159.47;;;9.84;72.75
5138;BME280;53959;53.626;11.410;2023-03-14T08:03:01;98164.13;;;9.95;72.59
5138;BME280;53959;53.626;11.410;2023-03-14T08:05:27;98171.59;;;10.03;72.32
5138;BME280;53959;53.626;11.410;2023-03-14T08:07:52;98164.59;;;10.02;72.19
5138;BME280;53959;53.626;11.410;2023-03-14T08:10:17;98174.91;;;9.92;72.32
5138;BME280;53959;53.626;11.410;2023-03-14T08:12:49;98177.84;;;10.02;72.29
5138;BME280;53959;53.626;11.410;2023-03-14T08:15:15;98169.78;;;10.03;72.21
5138;BME280;53959;53.626;11.410;2023-03-14T08:17:40;98163.44;;;10.06;71.73
5138;BME280;53959;53.626;11.410;2023-03-14T08:20:06;98161.75;;;10.05;71.67
5138;BME280;53959;53.626;11.410;2023-03-14T08:22:36;98161.25;;;10.12;71.75
5138;BME280;53959;53.626;11.410;2023-03-14T08:25:01;98162.34;;;10.22;70.81
5138;BME280;53959;53.626;11.410;2023-03-14T08:27:26;98152.63;;;10.23;70.67
5138;BME280;53959;53.626;11.410;2023-03-14T08:29:52;98162.47;;;10.35;71.00
5138;BME280;53959;53.626;11.410;2023-03-14T08:32:17;98159.47;;;10.27;70.89
5138;BME280;53959;53.626;11.410;2023-03-14T08:34:42;98169.28;;;10.11;70.65
5138;BME280;53959;53.626;11.410;2023-03-14T08:37:08;98167.31;;;10.29;70.98
5138;BME280;53959;53.626;11.410;2023-03-14T08:39:33;98165.84;;;10.37;71.31
5138;BME280;53959;53.626;11.410;2023-03-14T08:41:58;98169.88;;;10.16;71.86
5138;BME280;53959;53.626;11.410;2023-03-14T08:44:24;98171.47;;;10.18;71.63
5138;BME280;53959;53.626;11.410;2023-03-14T08:46:49;98148.25;;;10.22;71.83
5138;BME280;53959;53.626;11.410;2023-03-14T08:49:14;98155.66;;;10.31;71.62
5138;BME280;53959;53.626;11.410;2023-03-14T08:51:40;98159.81;;;10.35;71.40
5138;BME280;53959;53.626;11.410;2023-03-14T08:54:05;98147.78;;;10.30;71.89
5138;BME280;53959;53.626;11.410;2023-03-14T08:56:30;98146.94;;;10.56;71.03
5138;BME280;53959;53.626;11.410;2023-03-14T08:58:56;98150.84;;;10.51;70.70
5138;BME280;53959;53.626;11.410;2023-03-14T09:01:21;98155.00;;;10.55;71.03
5138;BME280;53959;53.626;11.410;2023-03-14T09:03:49;98157.41;;;10.45;71.14
5138;BME280;53959;53.626;11.410;2023-03-14T09:06:15;98133.44;;;10.47;70.47
5138;BME280;53959;53.626;11.410;2023-03-14T09:08:43;98147.19;;;10.39;70.77
5138;BME280;53959;53.626;11.410;2023-03-14T09:11:08;98144.25;;;10.43;70.70
5138;BME280;53959;53.626;11.410;2023-03-14T09:13:34;98138.38;;;10.65;70.49
5138;BME280;53959;53.626;11.410;2023-03-14T09:15:59;98145.91;;;10.72;69.55
5138;BME280;53959;53.626;11.410;2023-03-14T09:18:24;98133.53;;;10.85;69.52
5138;BME280;53959;53.626;11.410;2023-03-14T09:20:50;98149.91;;;10.91;69.03
5138;BME280;53959;53.626;11.410;2023-03-14T09:23:15;98139.16;;;10.80;68.84
5138;BME280;53959;53.626;11.410;2023-03-14T09:25:41;98133.03;;;10.92;68.71
5138;BME280;53959;53.626;11.410;2023-03-14T09:28:06;98136.94;;;10.87;68.36
5138;BME280;53959;53.626;11.410;2023-03-14T09:30:32;98147.38;;;11.03;68.53
5138;BME280;53959;53.626;11.410;2023-03-14T09:32:58;98140.75;;;10.83;68.54
5138;BME280;53959;53.626;11.410;2023-03-14T09:35:24;98151.34;;;11.10;68.30
5138;BME280;53959;53.626;11.410;2023-03-14T09:37:50;98140.59;;;11.24;67.28
5138;BME280;53959;53.626;11.410;2023-03-14T09:40:17;98139.34;;;11.17;67.78
5138;BME280;53959;53.626;11.410;2023-03-14T09:42:43;98134.44;;;11.24;67.45
5138;BME280;53959;53.626;11.410;2023-03-14T09:45:23;98156.00;;;11.32;66.51
5138;BME280;53959;53.626;11.410;2023-03-14T09:47:50;98149.72;;;11.20;66.45
5138;BME280;53959;53.626;11.410;2023-03-14T09:50:16;98149.97;;;11.17;66.91
5138;BME280;53959;53.626;11.410;2023-03-14T09:52:45;98157.19;;;11.15;67.18
5138;BME280;53959;53.626;11.410;2023-03-14T09:55:20;98150.16;;;11.14;66.41
5138;BME280;53959;53.626;11.410;2023-03-14T09:57:48;98146.25;;;11.32;66.18
5138;BME280;53959;53.626;11.410;2023-03-14T10:00:23;98148.91;;;11.32;64.78
5138;BME280;53959;53.626;11.410;2023-03-14T10:03:26;98153.78;;;11.38;63.64
5138;BME280;53959;53.626;11.410;2023-03-14T10:05:52;98145.94;;;11.37;62.28
5138;BME280;53959;53.626;11.410;2023-03-14T10:08:18;98136.25;;;11.49;62.20
5138;BME280;53959;53.626;11.410;2023-03-14T10:10:44;98146.56;;;11.66;62.09
5138;BME280;53959;53.626;11.410;2023-03-14T10:15:35;98147.41;;;11.66;61.84
5138;BME280;53959;53.626;11.410;2023-03-14T10:18:04;98146.03;;;11.74;62.18
5138;BME280;53959;53.626;11.410;2023-03-14T10:20:43;98144.13;;;11.88;61.95
5138;BME280;53959;53.626;11.410;2023-03-14T10:25:58;98147.09;;;11.84;61.89
5138;BME280;53959;53.626;11.410;2023-03-14T10:28:31;98125.81;;;11.71;61.11
5138;BME280;53959;53.626;11.410;2023-03-14T10:30:59;98144.53;;;11.82;61.46
5138;BME280;53959;53.626;11.410;2023-03-14T10:33:30;98143.69;;;11.82;61.29
5138;BME280;53959;53.626;11.410;2023-03-14T10:35:59;98157.50;;;12.00;61.51
5138;BME280;53959;53.626;11.410;2023-03-14T10:38:27;98142.66;;;12.21;61.05
5138;BME280;53959;53.626;11.410;2023-03-14T10:40:54;98140.75;;;12.23;60.86
5138;BME280;53959;53.626;11.410;2023-03-14T10:43:31;98137.06;;;12.37;60.45
5138;BME280;53959;53.626;11.410;2023-03-14T10:46:01;98146.28;;;12.20;60.38
5138;BME280;53959;53.626;11.410;2023-03-14T10:48:33;98134.38;;;12.13;60.33
5138;BME280;53959;53.626;11.410;2023-03-14T10:53:25;98151.16;;;12.26;60.67
5138;BME280;53959;53.626;11.410;2023-03-14T10:55:50;98140.06;;;12.32;60.72
5138;BME280;53959;53.626;11.410;2023-03-14T10:58:30;98147.56;;;12.14;61.02
5138;BME280;53959;53.626;11.410;2023-03-14T11:01:28;98151.94;;;12.15;60.87
5138;BME280;53959;53.626;11.410;2023-03-14T11:04:02;98149.97;;;12.30;59.87
5138;BME280;53959;53.626;11.410;2023-03-14T11:06:40;98157.63;;;12.59;59.40
5138;BME280;53959;53.626;11.410;2023-03-14T11:14:46;98148.38;;;12.52;58.99
5138;BME280;53959;53.626;11.410;2023-03-14T11:17:27;98164.22;;;12.29;59.41
5138;BME280;53959;53.626;11.410;2023-03-14T11:20:13;98152.19;;;12.36;59.78
5138;BME280;53959;53.626;11.410;2023-03-14T11:25:36;98189.50;;;12.11;60.67
5138;BME280;53959;53.626;11.410;2023-03-14T11:28:30;98235.50;;;11.87;64.52
5138;BME280;53959;53.626;11.410;2023-03-14T11:33:37;98325.94;;;7.54;82.17
5138;BME280;53959;53.626;11.410;2023-03-14T11:36:06;98331.63;;;7.11;83.01
5138;BME280;53959;53.626;11.410;2023-03-14T11:38:43;98343.16;;;6.34;82.34
5138;BME280;53959;53.626;11.410;2023-03-14T11:41:17;98365.50;;;6.06;81.66
5138;BME280;53959;53.626;11.410;2023-03-14T11:43:48;98355.13;;;5.81;81.74
5138;BME280;53959;53.626;11.410;2023-03-14T11:46:21;98389.44;;;5.38;80.52
5138;BME280;53959;53.626;11.410;2023-03-14T11:49:11;98394.97;;;5.09;80.47
5138;BME280;53959;53.626;11.410;2023-03-14T11:51:46;98412.03;;;4.99;80.08
5138;BME280;53959;53.626;11.410;2023-03-14T11:54:28;98420.84;;;4.98;80.38
5138;BME280;53959;53.626;11.410;2023-03-14T11:57:04;98430.25;;;5.04;80.64
5138;BME280;53959;53.626;11.410;2023-03-14T11:59:38;98437.69;;;4.71;80.34
5138;BME280;53959;53.626;11.410;2023-03-14T12:02:33;98464.44;;;4.33;79.11
5138;BME280;53959;53.626;11.410;2023-03-14T12:08:02;98460.91;;;4.34;78.92
5138;BME280;53959;53.626;11.410;2023-03-14T12:10:45;98477.69;;;4.55;79.45
5138;BME280;53959;53.626;11.410;2023-03-14T12:13:13;98493.72;;;4.23;79.10
5138;BME280;53959;53.626;11.410;2023-03-14T12:15:41;98513.94;;;4.21;78.58
5138;BME280;53959;53.626;11.410;2023-03-14T12:18:27;98529.94;;;4.13;78.40
5138;BME280;53959;53.626;11.410;2023-03-14T12:20:56;98538.94;;;4.06;79.45
5138;BME280;53959;53.626;11.410;2023-03-14T12:23:23;98539.66;;;3.84;79.82
5138;BME280;53959;53.626;11.410;2023-03-14T12:26:07;98543.94;;;3.87;79.66
5138;BME280;53959;53.626;11.410;2023-03-14T12:28:33;98550.44;;;4.03;79.81
5138;BME280;53959;53.626;11.410;2023-03-14T12:34:47;98554.97;;;3.98;79.16
5138;BME280;53959;53.626;11.410;2023-03-14T12:37:03;98580.34;;;3.99;78.67
5138;BME280;53959;53.626;11.410;2023-03-14T12:42:43;98596.38;;;3.90;77.52
5138;BME280;53959;53.626;11.410;2023-03-14T12:50:25;98610.34;;;3.90;76.93
5138;BME280;53959;53.626;11.410;2023-03-14T12:53:15;98616.78;;;4.10;77.74
5138;BME280;53959;53.626;11.410;2023-03-14T12:58:35;98628.56;;;3.97;77.54
5138;BME280;53959;53.626;11.410;2023-03-14T13:01:05;98622.31;;;4.01;77.89
5138;BME280;53959;53.626;11.410;2023-03-14T13:03:51;98633.72;;;4.00;77.30
5138;BME280;53959;53.626;11.410;2023-03-14T13:06:53;98627.22;;;4.11;77.54
5138;BME280;53959;53.626;11.410;2023-03-14T13:11:53;98637.31;;;4.24;77.32
5138;BME280;53959;53.626;11.410;2023-03-14T13:14:19;98658.59;;;4.16;76.94
5138;BME280;53959;53.626;11.410;2023-03-14T13:16:46;98671.78;;;4.14;76.59
5138;BME280;53959;53.626;11.410;2023-03-14T13:19:24;98685.16;;;4.07;75.90
5138;BME280;53959;53.626;11.410;2023-03-14T13:21:51;98687.63;;;4.11;76.42
5138;BME280;53959;53.626;11.410;2023-03-14T13:24:26;98692.75;;;3.88;76.12
5138;BME280;53959;53.626;11.410;2023-03-14T13:26:54;98700.25;;;4.00;76.13
5138;BME280;53959;53.626;11.410;2023-03-14T13:29:22;98706.91;;;3.82;76.64
5138;BME280;53959;53.626;11.410;2023-03-14T13:31:53;98711.84;;;3.93;76.60
5138;BME280;53959;53.626;11.410;2023-03-14T13:34:20;98724.41;;;3.82;76.14
5138;BME280;53959;53.626;11.410;2023-03-14T13:36:46;98719.84;;;3.88;76.98
5138;BME280;53959;53.626;11.410;2023-03-14T13:39:19;98733.22;;;3.81;75.77
5138;BME280;53959;53.626;11.410;2023-03-14T13:41:47;98733.53;;;4.00;75.53
5138;BME280;53959;53.626;11.410;2023-03-14T13:44:16;98757.75;;;4.09;76.08
5138;BME280;53959;53.626;11.410;2023-03-14T13:46:42;98759.38;;;4.13;76.54
5138;BME280;53959;53.626;11.410;2023-03-14T13:49:15;98755.78;;;4.16;75.00
5138;BME280;53959;53.626;11.410;2023-03-14T13:51:44;98765.03;;;4.00;74.55
5138;BME280;53959;53.626;11.410;2023-03-14T13:54:18;98781.28;;;4.14;74.82
5138;BME280;53959;53.626;11.410;2023-03-14T13:56:44;98777.19;;;4.32;75.79
5138;BME280;53959;53.626;11.410;2023-03-14T13:59:30;98784.75;;;4.43;75.37
5138;BME280;53959;53.626;11.410;2023-03-14T14:01:58;98787.84;;;4.29;74.73
5138;BME280;53959;53.626;11.410;2023-03-14T14:04:25;98787.25;;;4.47;74.62
5138;BME280;53959;53.626;11.410;2023-03-14T14:07:06;98793.63;;;4.40;74.16
5138;BME280;53959;53.626;11.410;2023-03-14T14:09:39;98809.97;;;4.50;75.03